createdAt,value
2023-04-15T00:01:10.051Z,82.06
2023-04-15T00:03:40.649Z,85.85
2023-04-15T00:06:09.835Z,85.58
2023-04-15T00:08:38.606Z,85.76
2023-04-15T00:11:07.255Z,82.81
2023-04-15T00:13:36.035Z,82.64
2023-04-15T00:16:04.485Z,82.82
2023-04-15T00:18:32.973Z,86.77
2023-04-15T00:21:03.029Z,84.58
2023-04-15T00:23:32.280Z,82.28
2023-04-15T00:26:00.738Z,83.78
2023-04-15T00:28:29.600Z,82.01
2023-04-15T00:30:58.270Z,82.81
2023-04-15T00:33:26.806Z,81.61
2023-04-15T00:35:55.234Z,81.46
2023-04-15T00:38:25.054Z,81.28
2023-04-15T00:40:54.182Z,81.35
2023-04-15T00:43:22.642Z,81.55
2023-04-15T00:45:53.722Z,81.45
2023-04-15T00:48:22.558Z,82.37
2023-04-15T00:50:51.013Z,81.38
2023-04-15T00:53:19.716Z,83.42
2023-04-15T00:55:49.747Z,83.33
2023-04-15T00:58:18.401Z,83.03
2023-04-15T01:00:47.290Z,82.79
2023-04-15T01:03:16.603Z,82.41
2023-04-15T01:05:45.134Z,82.82
2023-04-15T01:08:13.921Z,82.01
2023-04-15T01:10:42.630Z,85.47
2023-04-15T01:13:12.451Z,84.18
2023-04-15T01:15:41.494Z,83.48
2023-04-15T01:18:10.127Z,82.17
2023-04-15T01:20:38.671Z,83.09
2023-04-15T01:23:07.628Z,81.65
2023-04-15T01:25:37.527Z,81.43
2023-04-15T01:28:06.346Z,81.26
2023-04-15T01:30:36.100Z,83.82
2023-04-15T01:33:04.986Z,84.87
2023-04-15T01:35:33.498Z,81.78
2023-04-15T01:38:07.681Z,81.39
2023-04-15T01:40:37.808Z,81.25
2023-04-15T01:43:06.274Z,80.92
2023-04-15T01:45:34.989Z,81.08
2023-04-15T01:48:03.682Z,80.96
2023-04-15T01:50:32.415Z,81.22
2023-04-15T01:53:00.814Z,82.42
2023-04-15T01:55:29.299Z,84.45
2023-04-15T01:57:59.321Z,85.25
2023-04-15T02:00:27.759Z,83.17
2023-04-15T02:02:56.329Z,81.96
2023-04-15T02:05:25.325Z,81.82
2023-04-15T02:07:54.315Z,85.50
2023-04-15T02:10:23.375Z,84.08
2023-04-15T02:12:51.820Z,82.64
2023-04-15T02:15:21.683Z,86.46
2023-04-15T02:17:51.176Z,84.29
2023-04-15T02:20:22.540Z,83.13
2023-04-15T02:22:51.668Z,86.05
2023-04-15T02:25:20.571Z,84.75
2023-04-15T02:27:49.249Z,83.70
2023-04-15T02:30:18.096Z,83.15
2023-04-15T02:32:48.496Z,81.81
2023-04-15T02:35:19.429Z,82.24
2023-04-15T02:37:47.851Z,82.34
2023-04-15T02:40:16.256Z,82.14
2023-04-15T02:42:45.351Z,86.32
2023-04-15T02:45:14.215Z,84.36
2023-04-15T02:47:43.375Z,85.23
2023-04-15T02:50:15.389Z,86.61
2023-04-15T02:52:44.753Z,84.53
2023-04-15T02:55:13.573Z,83.34
2023-04-15T02:57:42.093Z,83.98
2023-04-15T03:00:12.192Z,83.83
2023-04-15T03:02:42.297Z,84.36
2023-04-15T03:05:16.098Z,85.13
2023-04-15T03:07:44.619Z,84.28
2023-04-15T03:10:13.098Z,83.41
2023-04-15T03:12:41.861Z,82.94
2023-04-15T03:15:11.868Z,83.05
2023-04-15T03:17:40.344Z,83.37
2023-04-15T03:20:10.426Z,84.16
2023-04-15T03:22:40.297Z,84.64
2023-04-15T03:25:09.516Z,83.59
2023-04-15T03:27:39.139Z,83.70
2023-04-15T03:30:09.578Z,84.41
2023-04-15T03:32:38.072Z,84.07
2023-04-15T03:35:07.558Z,84.33
2023-04-15T03:37:36.325Z,83.87
2023-04-15T03:40:07.458Z,84.54
2023-04-15T03:42:36.282Z,84.06
2023-04-15T03:45:05.249Z,83.24
2023-04-15T03:47:33.654Z,83.73
2023-04-15T03:50:02.085Z,83.57
2023-04-15T03:52:30.546Z,83.69
2023-04-15T03:54:58.944Z,83.21
2023-04-15T03:57:28.785Z,83.34
2023-04-15T03:59:57.299Z,83.54
2023-04-15T04:02:26.033Z,83.44
2023-04-15T04:04:54.557Z,83.75
2023-04-15T04:07:25.809Z,84.42
2023-04-15T04:09:54.349Z,84.15
2023-04-15T04:12:22.765Z,83.73
2023-04-15T04:14:52.818Z,84.44
2023-04-15T04:17:21.224Z,83.46
2023-04-15T04:19:49.892Z,83.85
2023-04-15T04:22:18.303Z,84.66
2023-04-15T04:24:46.936Z,83.94
2023-04-15T04:27:15.742Z,84.85
2023-04-15T04:29:44.315Z,84.79
2023-04-15T04:32:14.225Z,84.52
2023-04-15T04:34:42.763Z,84.67
2023-04-15T04:37:11.430Z,84.42
2023-04-15T04:39:40.123Z,83.93
2023-04-15T04:42:08.583Z,84.68
2023-04-15T04:44:37.287Z,84.72
2023-04-15T04:47:06.606Z,85.44
2023-04-15T04:49:36.899Z,86.52
2023-04-15T04:52:05.818Z,86.28
2023-04-15T04:54:34.242Z,85.84
2023-04-15T04:57:03.087Z,84.66
2023-04-15T04:59:31.899Z,85.08
2023-04-15T05:02:00.739Z,84.83
2023-04-15T05:04:29.242Z,86.22
2023-04-15T05:06:59.372Z,85.82
2023-04-15T05:09:28.410Z,84.99
2023-04-15T05:11:56.819Z,85.30
2023-04-15T05:14:25.316Z,84.33
2023-04-15T05:16:53.772Z,84.37
2023-04-15T05:19:22.214Z,84.36
2023-04-15T05:21:50.643Z,84.24
2023-04-15T05:24:21.281Z,84.25
2023-04-15T05:26:49.685Z,84.71
2023-04-15T05:29:18.328Z,85.74
2023-04-15T05:31:46.943Z,87.05
2023-04-15T05:34:16.595Z,87.89
2023-04-15T05:36:45.023Z,86.62
2023-04-15T05:39:13.704Z,86.47
2023-04-15T05:41:43.564Z,85.67
2023-04-15T05:44:12.039Z,85.28
2023-04-15T05:46:40.913Z,84.89
2023-04-15T05:49:09.383Z,83.48
2023-04-15T05:51:37.856Z,84.06
2023-04-15T05:54:06.908Z,84.72
2023-04-15T05:56:35.526Z,84.64
2023-04-15T05:59:05.326Z,84.34
2023-04-15T06:01:35.648Z,83.01
2023-04-15T06:04:04.207Z,83.91
2023-04-15T06:06:33.678Z,83.40
2023-04-15T06:09:02.774Z,83.74
2023-04-15T06:11:31.486Z,82.69
2023-04-15T06:13:59.928Z,82.61
2023-04-15T06:16:29.819Z,83.49
2023-04-15T06:18:58.254Z,82.92
2023-04-15T06:21:27.082Z,81.84
2023-04-15T06:23:56.697Z,81.84
2023-04-15T06:26:25.134Z,82.16
2023-04-15T06:28:53.521Z,82.26
2023-04-15T06:31:21.923Z,82.66
2023-04-15T06:33:51.817Z,83.03
2023-04-15T06:36:20.347Z,82.89
2023-04-15T06:38:48.788Z,82.70
2023-04-15T06:41:17.218Z,82.32
2023-04-15T06:43:45.694Z,83.63
2023-04-15T06:46:14.156Z,82.59
2023-04-15T06:48:42.593Z,82.68
2023-04-15T06:51:12.731Z,82.19
2023-04-15T06:53:42.800Z,83.51
2023-04-15T06:56:11.644Z,82.29
2023-04-15T06:58:40.046Z,81.46
2023-04-15T07:01:08.490Z,81.94
2023-04-15T07:03:37.147Z,81.27
2023-04-15T07:06:07.158Z,80.97
2023-04-15T07:08:36.981Z,80.91
2023-04-15T07:11:05.524Z,80.66
2023-04-15T07:13:34.641Z,81.80
2023-04-15T07:16:03.073Z,81.76
2023-04-15T07:18:31.466Z,79.51
2023-04-15T07:20:59.869Z,79.35
2023-04-15T07:23:28.336Z,80.54
2023-04-15T07:25:58.582Z,79.40
2023-04-15T07:28:27.032Z,79.43
2023-04-15T07:30:57.372Z,78.69
2023-04-15T07:33:25.916Z,78.36
2023-04-15T07:35:54.670Z,78.82
2023-04-15T07:38:24.065Z,78.62
2023-04-15T07:40:52.558Z,79.00
2023-04-15T07:43:22.690Z,79.67
2023-04-15T07:45:51.359Z,80.37
2023-04-15T07:48:19.842Z,78.83
2023-04-15T07:50:48.512Z,77.80
2023-04-15T07:53:16.931Z,78.47
2023-04-15T07:55:45.662Z,77.21
2023-04-15T07:58:14.073Z,79.18
2023-04-15T08:00:43.927Z,78.00
2023-04-15T08:03:12.495Z,78.90
2023-04-15T08:05:41.118Z,78.99
2023-04-15T08:08:09.488Z,76.96
2023-04-15T08:10:39.091Z,77.11
2023-04-15T08:13:08.055Z,76.33
2023-04-15T08:15:36.892Z,78.41
2023-04-15T08:18:07.327Z,78.35
2023-04-15T08:20:35.760Z,76.15
2023-04-15T08:23:04.729Z,77.78
2023-04-15T08:25:33.445Z,76.60
2023-04-15T08:28:07.174Z,76.00
2023-04-15T08:30:35.700Z,76.57
2023-04-15T08:33:04.188Z,76.98
2023-04-15T08:35:33.973Z,74.17
2023-04-15T08:38:02.794Z,75.95
2023-04-15T08:40:41.620Z,73.65
2023-04-15T08:43:12.632Z,75.07
2023-04-15T08:45:41.305Z,71.57
2023-04-15T08:48:11.479Z,71.64
2023-04-15T08:50:42.131Z,72.52
2023-04-15T08:53:11.380Z,71.25
2023-04-15T08:55:46.155Z,70.74
2023-04-15T08:58:17.282Z,67.51
2023-04-15T09:00:45.861Z,68.04
2023-04-15T09:03:14.460Z,65.63
2023-04-15T09:05:44.502Z,66.04
2023-04-15T09:08:13.290Z,63.51
2023-04-15T09:10:41.755Z,62.03
2023-04-15T09:13:10.774Z,60.08
2023-04-15T09:15:40.651Z,58.17
2023-04-15T09:18:09.344Z,59.01
2023-04-15T09:20:43.109Z,53.88
2023-04-15T09:23:17.598Z,56.01
2023-04-15T09:25:46.700Z,54.73
2023-04-15T09:28:15.313Z,57.30
2023-04-15T09:30:46.606Z,56.62
2023-04-15T09:33:16.749Z,51.03
2023-04-15T09:36:01.035Z,53.40
2023-04-15T09:38:30.491Z,54.64
2023-04-15T09:41:00.006Z,53.47
2023-04-15T09:43:40.983Z,52.12
2023-04-15T09:46:09.504Z,51.98
2023-04-15T09:48:38.294Z,51.62
2023-04-15T09:51:08.370Z,52.14
2023-04-15T09:53:39.003Z,53.18
2023-04-15T09:56:09.157Z,52.44
2023-04-15T09:58:38.871Z,51.65
2023-04-15T10:01:09.324Z,47.88
2023-04-15T10:03:38.117Z,48.00
2023-04-15T10:06:08.350Z,48.95
2023-04-15T10:08:37.002Z,48.69
2023-04-15T10:11:06.011Z,48.56
2023-04-15T10:13:36.346Z,47.90
2023-04-15T10:16:10.497Z,50.21
2023-04-15T10:18:45.707Z,45.93
2023-04-15T10:21:18.632Z,47.14
2023-04-15T10:23:48.044Z,49.21
2023-04-15T10:26:18.367Z,47.17
2023-04-15T10:28:48.595Z,46.50
2023-04-15T10:31:18.573Z,45.17
2023-04-15T10:33:49.171Z,46.78
2023-04-15T10:36:21.251Z,46.48
2023-04-15T10:38:49.703Z,47.80
2023-04-15T10:41:21.548Z,48.71
2023-04-15T10:43:52.937Z,47.47
2023-04-15T10:46:24.606Z,48.49
2023-04-15T10:48:55.018Z,51.10
2023-04-15T10:51:33.915Z,48.18
2023-04-15T10:54:02.614Z,48.16
2023-04-15T10:56:31.919Z,46.17
2023-04-15T10:59:03.336Z,46.38
2023-04-15T11:02:00.469Z,49.54
2023-04-15T11:05:02.644Z,49.18
2023-04-15T11:07:41.615Z,51.13
2023-04-15T11:10:56.211Z,50.75
2023-04-15T11:13:29.494Z,49.71
2023-04-15T11:16:03.637Z,51.07
2023-04-15T11:18:35.389Z,49.42
2023-04-15T11:21:09.560Z,50.77
2023-04-15T11:23:44.444Z,50.50
2023-04-15T11:26:12.994Z,49.39
2023-04-15T11:28:43.696Z,47.35
2023-04-15T11:31:15.176Z,47.91
2023-04-15T11:33:48.884Z,48.77
2023-04-15T11:36:18.076Z,48.82
2023-04-15T11:38:49.019Z,51.08
2023-04-15T11:41:22.000Z,50.98
2023-04-15T11:43:51.258Z,51.76
2023-04-15T11:46:20.373Z,52.19
2023-04-15T11:48:48.977Z,52.22
2023-04-15T11:51:17.712Z,50.42
2023-04-15T11:53:49.577Z,53.04
2023-04-15T11:56:23.899Z,50.93
2023-04-15T11:58:57.046Z,53.43
2023-04-15T12:01:33.613Z,52.70
2023-04-15T12:04:04.371Z,54.53
2023-04-15T12:06:37.080Z,55.83
2023-04-15T12:09:12.222Z,55.09
2023-04-15T12:11:45.025Z,55.48
2023-04-15T12:14:20.034Z,54.86
2023-04-15T12:16:52.012Z,55.73
2023-04-15T12:19:25.985Z,54.29
2023-04-15T12:22:00.609Z,57.32
2023-04-15T12:24:33.760Z,56.10
2023-04-15T12:27:05.664Z,57.49
2023-04-15T12:29:36.646Z,57.14
2023-04-15T12:32:11.089Z,57.02
2023-04-15T12:34:41.896Z,58.18
2023-04-15T12:37:12.169Z,59.91
2023-04-15T12:39:43.926Z,61.20
2023-04-15T12:42:13.677Z,62.49
2023-04-15T12:44:42.276Z,62.86
2023-04-15T12:47:12.228Z,63.56
2023-04-15T12:49:41.123Z,64.06
2023-04-15T12:52:10.008Z,65.64
2023-04-15T12:54:38.436Z,65.23
2023-04-15T12:57:08.440Z,65.51
2023-04-15T12:59:37.589Z,65.52
2023-04-15T13:02:06.497Z,65.15
2023-04-15T13:04:35.127Z,63.80
2023-04-15T13:07:03.844Z,63.29
2023-04-15T13:09:32.642Z,63.33
2023-04-15T13:12:01.507Z,61.79
2023-04-15T13:14:31.655Z,60.94
2023-04-15T13:17:01.535Z,60.32
2023-04-15T13:19:30.091Z,58.62
2023-04-15T13:21:58.516Z,58.12
2023-04-15T13:24:27.029Z,59.42
2023-04-15T13:26:57.238Z,55.98
2023-04-15T13:29:26.044Z,56.33
2023-04-15T13:31:55.986Z,55.33
2023-04-15T13:34:24.521Z,57.98
2023-04-15T13:36:53.093Z,55.51
2023-04-15T13:39:21.610Z,56.48
2023-04-15T13:41:50.151Z,59.44
2023-04-15T13:44:20.898Z,58.06
2023-04-15T13:46:50.454Z,62.74
2023-04-15T13:49:20.604Z,61.42
2023-04-15T13:51:49.031Z,64.81
2023-04-15T13:54:17.455Z,65.11
2023-04-15T13:56:46.026Z,65.02
2023-04-15T13:59:14.724Z,66.51
2023-04-15T14:01:43.819Z,64.97
2023-04-15T14:04:12.617Z,63.67
2023-04-15T14:06:42.603Z,64.94
2023-04-15T14:09:12.663Z,63.14
2023-04-15T14:11:41.108Z,62.80
2023-04-15T14:14:09.863Z,62.47
2023-04-15T14:16:38.349Z,62.62
2023-04-15T14:19:07.022Z,60.49
2023-04-15T14:21:35.846Z,62.59
2023-04-15T14:24:06.526Z,59.31
2023-04-15T14:26:35.080Z,59.12
2023-04-15T14:29:03.716Z,58.43
2023-04-15T14:31:32.533Z,59.61
2023-04-15T14:34:00.955Z,58.75
2023-04-15T14:36:29.434Z,59.23
2023-04-15T14:38:57.879Z,58.59
2023-04-15T14:41:27.789Z,58.48
2023-04-15T14:43:57.636Z,57.47
2023-04-15T14:46:26.695Z,58.15
2023-04-15T14:48:55.650Z,57.55
2023-04-15T14:51:24.859Z,57.94
2023-04-15T14:53:53.295Z,57.80
2023-04-15T14:56:21.711Z,60.09
2023-04-15T14:58:53.226Z,59.09
2023-04-15T15:01:22.446Z,57.55
2023-04-15T15:03:51.407Z,55.96
2023-04-15T15:06:21.910Z,55.49
2023-04-15T15:08:51.222Z,51.32
2023-04-15T15:11:19.720Z,51.97
2023-04-15T15:13:48.152Z,46.92
2023-04-15T15:16:18.312Z,46.35
2023-04-15T15:18:46.886Z,46.64
2023-04-15T15:21:15.342Z,45.39
2023-04-15T15:23:43.827Z,45.19
2023-04-15T15:26:12.876Z,45.57
2023-04-15T15:28:42.247Z,43.47
2023-04-15T15:31:10.986Z,44.09
2023-04-15T15:33:41.094Z,44.35
2023-04-15T15:36:10.937Z,45.50
2023-04-15T15:38:39.391Z,45.57
2023-04-15T15:41:08.118Z,43.73
2023-04-15T15:43:36.604Z,45.28
2023-04-15T15:46:05.959Z,47.38
2023-04-15T15:48:34.485Z,47.31
2023-04-15T15:51:04.888Z,48.35
2023-04-15T15:53:33.385Z,49.15
2023-04-15T15:56:03.756Z,48.61
2023-04-15T15:58:32.331Z,50.51
2023-04-15T16:01:01.891Z,50.73
2023-04-15T16:03:31.328Z,51.45
2023-04-15T16:05:59.904Z,50.60
2023-04-15T16:08:29.836Z,53.48
2023-04-15T16:10:58.347Z,52.28
2023-04-15T16:13:26.824Z,53.11
2023-04-15T16:15:55.281Z,54.33
2023-04-15T16:18:23.721Z,53.58
2023-04-15T16:20:52.158Z,53.55
2023-04-15T16:23:21.203Z,53.68
2023-04-15T16:25:52.565Z,54.23
2023-04-15T16:28:26.989Z,54.39
2023-04-15T16:30:56.278Z,54.25
2023-04-15T16:33:24.822Z,55.12
2023-04-15T16:35:53.521Z,54.32
2023-04-15T16:38:22.717Z,55.34
2023-04-15T16:40:52.956Z,56.09
2023-04-15T16:43:21.489Z,56.18
2023-04-15T16:45:51.548Z,56.45
2023-04-15T16:48:20.971Z,56.72
2023-04-15T16:50:49.940Z,56.55
2023-04-15T16:53:18.662Z,56.87
2023-04-15T16:55:47.080Z,57.35
2023-04-15T16:58:16.991Z,56.81
2023-04-15T17:00:45.979Z,57.00
2023-04-15T17:03:14.593Z,57.34
2023-04-15T17:05:43.416Z,57.71
2023-04-15T17:08:11.851Z,58.76
2023-04-15T17:10:40.351Z,58.48
2023-04-15T17:13:09.256Z,58.27
2023-04-15T17:15:39.120Z,59.57
2023-04-15T17:18:11.509Z,59.48
2023-04-15T17:20:40.830Z,59.39
2023-04-15T17:23:09.273Z,60.05
2023-04-15T17:25:37.861Z,61.75
2023-04-15T17:28:06.612Z,61.65
2023-04-15T17:30:35.100Z,61.15
2023-04-15T17:33:57.496Z,61.68
2023-04-15T17:35:53.683Z,62.31
2023-04-15T17:38:22.127Z,62.79
2023-04-15T17:40:51.673Z,64.32
2023-04-15T17:43:20.229Z,64.32
2023-04-15T17:45:48.818Z,63.38
2023-04-15T17:48:18.611Z,64.81
2023-04-15T17:50:47.010Z,64.51
2023-04-15T17:53:15.544Z,65.86
2023-04-15T17:55:44.086Z,65.70
2023-04-15T17:58:12.556Z,65.76
2023-04-15T18:00:41.051Z,66.16
2023-04-15T18:03:09.659Z,65.67
2023-04-15T18:05:41.362Z,66.32
2023-04-15T18:08:11.140Z,65.00
2023-04-15T18:10:40.639Z,65.69
2023-04-15T18:13:10.047Z,66.37
2023-04-15T18:15:38.692Z,66.31
2023-04-15T18:18:07.584Z,67.04
2023-04-15T18:20:36.130Z,67.65
2023-04-15T18:23:05.962Z,66.53
2023-04-15T18:25:34.970Z,69.29
2023-04-15T18:28:03.835Z,66.50
2023-04-15T18:30:32.354Z,64.78
2023-04-15T18:33:00.863Z,64.81
2023-04-15T18:35:30.133Z,64.16
2023-04-15T18:37:59.136Z,64.21
2023-04-15T18:40:29.110Z,63.19
2023-04-15T18:42:57.809Z,63.01
2023-04-15T18:45:26.357Z,61.84
2023-04-15T18:47:54.981Z,64.32
2023-04-15T18:50:23.463Z,65.79
2023-04-15T18:52:51.882Z,67.45
2023-04-15T18:55:20.803Z,66.70
2023-04-15T18:57:51.039Z,63.76
2023-04-15T19:00:19.920Z,65.82
2023-04-15T19:02:48.534Z,66.77
2023-04-15T19:05:17.166Z,65.18
2023-04-15T19:07:45.810Z,64.12
2023-04-15T19:10:14.583Z,64.54
2023-04-15T19:12:43.152Z,64.48
2023-04-15T19:15:13.334Z,66.05
2023-04-15T19:17:42.014Z,63.79
2023-04-15T19:20:11.424Z,63.81
2023-04-15T19:22:40.003Z,62.42
2023-04-15T19:25:09.650Z,62.93
2023-04-15T19:27:38.337Z,64.01
2023-04-15T19:30:08.592Z,66.22
2023-04-15T19:32:38.422Z,67.81
2023-04-15T19:35:09.932Z,69.30
2023-04-15T19:37:39.755Z,70.67
2023-04-15T19:40:10.014Z,72.38
2023-04-15T19:42:38.437Z,73.74
2023-04-15T19:45:08.272Z,75.46
2023-04-15T19:47:38.260Z,74.60
2023-04-15T19:50:10.041Z,76.32
2023-04-15T19:52:38.917Z,77.15
2023-04-15T19:55:08.032Z,78.46
2023-04-15T19:57:36.552Z,76.99
2023-04-15T20:00:06.993Z,79.53
2023-04-15T20:02:35.574Z,79.26
2023-04-15T20:05:09.738Z,81.00
2023-04-15T20:07:39.909Z,81.05
2023-04-15T20:10:13.049Z,81.62
2023-04-15T20:12:50.395Z,80.95
2023-04-15T20:15:22.724Z,82.77
2023-04-15T20:17:51.323Z,82.77
2023-04-15T20:20:21.696Z,82.89
2023-04-15T20:22:50.583Z,83.02
2023-04-15T20:25:19.050Z,83.15
2023-04-15T20:27:47.479Z,83.54
2023-04-15T20:30:16.057Z,83.28
2023-04-15T20:32:44.679Z,83.35
2023-04-15T20:35:13.151Z,83.96
2023-04-15T20:37:45.332Z,84.38
2023-04-15T20:40:15.532Z,83.53
2023-04-15T20:42:44.394Z,83.75
2023-04-15T20:45:13.221Z,84.27
2023-04-15T20:47:41.937Z,84.08
2023-04-15T20:50:12.221Z,85.89
2023-04-15T20:55:31.706Z,84.07
2023-04-15T20:58:00.826Z,85.10
2023-04-15T21:00:29.611Z,84.83
2023-04-15T21:02:58.208Z,85.85
2023-04-15T21:05:27.654Z,85.17
2023-04-15T21:07:57.462Z,85.87
2023-04-15T21:10:26.364Z,86.12
2023-04-15T21:12:54.786Z,86.76
2023-04-15T21:15:23.653Z,86.27
2023-04-15T21:17:52.143Z,86.53
2023-04-15T21:20:20.813Z,86.21
2023-04-15T21:22:49.450Z,85.48
2023-04-15T21:25:19.432Z,86.41
2023-04-15T21:27:48.650Z,87.42
2023-04-15T21:30:17.124Z,87.45
2023-04-15T21:32:46.692Z,86.78
2023-04-15T21:35:15.421Z,87.23
2023-04-15T21:37:43.864Z,86.61
2023-04-15T21:40:13.393Z,87.39
2023-04-15T21:42:43.257Z,87.66
2023-04-15T21:45:13.318Z,87.11
2023-04-15T21:48:07.753Z,85.63
2023-04-15T21:50:30.502Z,86.02
2023-04-15T21:52:59.350Z,87.76
2023-04-15T21:55:28.189Z,87.39
2023-04-15T21:57:58.024Z,87.94
2023-04-15T22:00:26.516Z,87.65
2023-04-15T22:02:55.084Z,87.64
2023-04-15T22:05:23.747Z,89.02
2023-04-15T22:07:52.166Z,87.96
2023-04-15T22:10:21.042Z,88.27
2023-04-15T22:12:49.476Z,87.00
2023-04-15T22:15:19.275Z,86.44
2023-04-15T22:17:47.777Z,87.26
2023-04-15T22:20:16.380Z,87.06
2023-04-15T22:22:45.023Z,87.31
2023-04-15T22:25:13.741Z,87.52
2023-04-15T22:27:42.185Z,86.56
2023-04-15T22:30:12.506Z,87.42
2023-04-15T22:32:42.523Z,87.94
2023-04-15T22:35:11.073Z,88.28
2023-04-15T22:37:39.575Z,88.18
2023-04-15T22:40:09.665Z,88.01
2023-04-15T22:42:38.110Z,88.13
2023-04-15T22:45:08.503Z,87.77
2023-04-15T22:47:36.975Z,88.61
2023-04-15T22:50:08.822Z,88.84
2023-04-15T22:52:37.274Z,89.35
2023-04-15T22:55:06.597Z,88.63
2023-04-15T22:57:35.038Z,89.33
2023-04-15T23:00:04.090Z,88.04
2023-04-15T23:02:32.634Z,88.63
2023-04-15T23:05:01.642Z,88.97
2023-04-15T23:07:42.602Z,88.30
2023-04-15T23:10:11.679Z,89.60
2023-04-15T23:12:40.136Z,88.01
2023-04-15T23:15:10.456Z,88.32
2023-04-15T23:17:38.984Z,87.33
2023-04-15T23:20:08.654Z,88.52
2023-04-15T23:22:37.930Z,88.37
2023-04-15T23:25:08.676Z,88.40
2023-04-15T23:27:37.929Z,88.91
2023-04-15T23:30:08.245Z,89.22
2023-04-15T23:32:36.737Z,89.21
2023-04-15T23:35:06.197Z,89.33
2023-04-15T23:37:34.638Z,88.60
2023-04-15T23:40:03.672Z,89.24
2023-04-15T23:42:33.496Z,89.44
2023-04-15T23:45:01.912Z,89.59
2023-04-15T23:47:30.455Z,88.73
2023-04-15T23:52:45.080Z,90.00
2023-04-15T23:55:13.708Z,89.53
2023-04-15T23:57:43.488Z,90.48
